Time;durP1;ratioP1;P1;durP2;ratioP2;P2;SDS_P1;SDS_P2;PMS_P1;PMS_P2;Temp;Humidity;BMP_temperature;BMP_pressure;BME280_temperature;BME280_humidity;BME280_pressure;Samples;Min_cycle;Max_cycle;Signal;HPM_P1;HPM_P2
2023/03/17 00:00:51;;;;;;;4.63;2.90;;;7.00;62.40;;;;;;5053637;28;20572;-61
2023/03/17 00:03:22;;;;;;;3.00;2.65;;;7.00;62.50;;;;;;5053350;28;20247;-61
2023/03/17 00:05:49;;;;;;;2.55;2.35;;;6.90;62.50;;;;;;5053868;28;20205;-61
2023/03/17 00:08:20;;;;;;;2.80;2.35;;;7.00;62.70;;;;;;5053469;28;20206;-61
2023/03/17 00:10:47;;;;;;;3.15;2.22;;;6.90;62.70;;;;;;5053197;28;20645;-60
2023/03/17 00:13:14;;;;;;;3.88;3.00;;;6.90;62.70;;;;;;5053625;28;20216;-61
2023/03/17 00:15:42;;;;;;;2.30;2.03;;;6.90;62.80;;;;;;5053046;28;20244;-61
2023/03/17 00:18:14;;;;;;;3.65;2.58;;;6.90;63.40;;;;;;5052679;28;20222;-60
2023/03/17 00:20:41;;;;;;;4.93;2.53;;;6.90;62.90;;;;;;5052837;28;20277;-62
2023/03/17 00:23:15;;;;;;;3.63;2.45;;;6.80;63.10;;;;;;5053220;28;20604;-61
2023/03/17 00:25:44;;;;;;;5.43;2.72;;;6.80;63.30;;;;;;5053111;28;20185;-60
2023/03/17 00:28:17;;;;;;;3.92;2.90;;;6.80;63.50;;;;;;5056355;28;20697;-60
2023/03/17 00:30:43;;;;;;;2.63;2.42;;;6.80;63.60;;;;;;5057163;28;20359;-61
2023/03/17 00:33:14;;;;;;;4.80;3.40;;;6.70;63.60;;;;;;5057088;28;20578;-60
2023/03/17 00:35:42;;;;;;;2.95;2.47;;;6.70;63.70;;;;;;5056745;28;20740;-60
2023/03/17 00:38:14;;;;;;;3.42;2.15;;;6.60;63.80;;;;;;5056790;28;20656;-60
2023/03/17 00:40:40;;;;;;;2.95;2.55;;;6.60;64.10;;;;;;5057256;28;20193;-60
2023/03/17 00:43:08;;;;;;;3.85;3.00;;;6.60;64.40;;;;;;5056617;28;20694;-61
2023/03/17 00:45:35;;;;;;;3.85;2.25;;;6.50;64.60;;;;;;5057160;28;20209;-60
2023/03/17 00:48:02;;;;;;;2.95;2.50;;;6.50;64.90;;;;;;5056721;28;20221;-61
2023/03/17 00:50:30;;;;;;;2.83;2.63;;;6.50;65.20;;;;;;5056803;28;20199;-61
2023/03/17 00:52:58;;;;;;;3.00;2.40;;;6.50;65.30;;;;;;5056717;28;20663;-61
2023/03/17 00:55:26;;;;;;;2.63;2.42;;;6.40;65.50;;;;;;5056608;28;20209;-61
2023/03/17 00:57:53;;;;;;;3.35;2.50;;;6.40;65.70;;;;;;5056873;28;20222;-61
2023/03/17 01:00:23;;;;;;;3.45;2.47;;;6.40;65.90;;;;;;5056874;28;20214;-60
2023/03/17 01:02:50;;;;;;;4.28;2.95;;;6.40;66.00;;;;;;5057512;28;20247;-59
2023/03/17 01:05:18;;;;;;;2.30;2.10;;;6.40;66.20;;;;;;5057225;28;20206;-61
2023/03/17 01:07:51;;;;;;;3.65;2.50;;;6.40;66.20;;;;;;5057415;28;20600;-60
2023/03/17 01:10:21;;;;;;;3.45;2.22;;;6.40;66.30;;;;;;5057635;28;20560;-60
2023/03/17 01:12:48;;;;;;;3.85;2.88;;;6.40;66.30;;;;;;5057684;28;20212;-61
2023/03/17 01:15:15;;;;;;;3.33;3.03;;;6.40;66.50;;;;;;5057682;28;20221;-60
2023/03/17 01:17:42;;;;;;;4.15;2.70;;;6.40;66.90;;;;;;5057103;28;20229;-61
2023/03/17 01:20:15;;;;;;;2.83;2.53;;;6.40;66.90;;;;;;5056636;28;20268;-60
2023/03/17 01:22:42;;;;;;;3.60;2.20;;;6.40;66.80;;;;;;5056822;28;20186;-60
2023/03/17 01:25:11;;;;;;;3.75;2.60;;;6.40;66.90;;;;;;5056833;28;20206;-60
2023/03/17 01:27:40;;;;;;;3.50;2.70;;;6.40;67.00;;;;;;5056429;28;20230;-60
2023/03/17 01:30:09;;;;;;;2.70;2.50;;;6.40;67.10;;;;;;5056493;28;20197;-60
2023/03/17 01:32:36;;;;;;;2.80;2.10;;;6.40;67.10;;;;;;5056800;28;20225;-60
2023/03/17 01:35:03;;;;;;;5.45;2.92;;;6.40;67.30;;;;;;5056744;28;20206;-61
2023/03/17 01:37:30;;;;;;;3.40;3.10;;;6.50;67.40;;;;;;5057660;28;20642;-60
2023/03/17 01:39:58;;;;;;;4.50;2.80;;;6.50;67.50;;;;;;5058272;28;20201;-61
2023/03/17 01:42:26;;;;;;;3.42;2.47;;;6.50;67.50;;;;;;5057666;28;20271;-60
2023/03/17 01:44:58;;;;;;;3.50;3.20;;;6.50;67.60;;;;;;5057723;28;20329;-58
2023/03/17 01:47:27;;;;;;;2.83;2.53;;;6.50;67.80;;;;;;5058024;28;20226;-60
2023/03/17 01:49:54;;;;;;;3.30;2.95;;;6.50;68.00;;;;;;5057854;28;20229;-60
2023/03/17 01:52:23;;;;;;;4.93;3.05;;;6.50;68.10;;;;;;5055776;28;20205;-60
2023/03/17 01:54:54;;;;;;;3.45;3.10;;;6.50;68.20;;;;;;5055657;28;20225;-60
2023/03/17 01:57:25;;;;;;;3.15;2.83;;;6.50;68.30;;;;;;5055525;28;20232;-60
2023/03/17 01:59:56;;;;;;;3.33;2.97;;;6.50;68.40;;;;;;5055816;28;20276;-61
2023/03/17 02:02:25;;;;;;;4.63;3.35;;;6.50;68.60;;;;;;5055471;28;20229;-61
2023/03/17 02:04:52;;;;;;;3.22;2.63;;;6.50;68.80;;;;;;5054883;28;20201;-61
2023/03/17 02:07:21;;;;;;;4.28;2.83;;;6.50;68.90;;;;;;5054989;28;20220;-60
2023/03/17 02:09:48;;;;;;;3.50;3.17;;;6.50;69.10;;;;;;5054684;28;20198;-61
2023/03/17 02:12:15;;;;;;;4.40;3.40;;;6.50;69.20;;;;;;5054774;28;20220;-61
2023/03/17 02:14:42;;;;;;;4.10;3.50;;;6.50;69.40;;;;;;5054749;28;20206;-61
2023/03/17 02:17:11;;;;;;;3.38;3.05;;;6.50;69.60;;;;;;5054993;28;20229;-61
2023/03/17 02:19:38;;;;;;;4.43;3.67;;;6.50;70.30;;;;;;5058334;28;20228;-60
2023/03/17 02:22:07;;;;;;;5.07;3.15;;;6.50;69.70;;;;;;5058211;28;20208;-60
2023/03/17 02:24:37;;;;;;;3.30;3.00;;;6.50;69.60;;;;;;5055252;28;20202;-60
2023/03/17 02:27:08;;;;;;;3.75;2.55;;;6.50;69.70;;;;;;5054861;28;20227;-61
2023/03/17 02:29:36;;;;;;;3.30;2.70;;;6.50;69.70;;;;;;5054751;28;20200;-61
2023/03/17 02:32:04;;;;;;;4.60;3.30;;;6.60;69.80;;;;;;5054933;28;20252;-61
2023/03/17 02:34:31;;;;;;;4.85;3.50;;;6.60;69.90;;;;;;5054755;28;20206;-60
2023/03/17 02:36:58;;;;;;;5.55;3.03;;;6.60;69.80;;;;;;5054563;28;20229;-60
2023/03/17 02:39:26;;;;;;;5.03;2.70;;;6.60;69.80;;;;;;5055047;28;20206;-61
2023/03/17 02:41:53;;;;;;;4.07;3.08;;;6.60;69.80;;;;;;5055111;28;20288;-60
2023/03/17 02:44:19;;;;;;;4.22;3.20;;;6.60;69.90;;;;;;5054901;28;20213;-61
2023/03/17 02:46:46;;;;;;;3.65;3.35;;;6.50;69.90;;;;;;5054467;28;20214;-60
2023/03/17 02:49:14;;;;;;;3.90;2.88;;;6.50;70.00;;;;;;5053842;28;20197;-60
2023/03/17 02:51:41;;;;;;;3.22;2.92;;;6.40;70.30;;;;;;5053906;28;20248;-60
2023/03/17 02:54:08;;;;;;;9.48;3.83;;;6.40;70.60;;;;;;5054781;28;20209;-60
2023/03/17 02:56:36;;;;;;;3.33;3.00;;;6.40;70.90;;;;;;5055265;28;20222;-60
2023/03/17 02:59:03;;;;;;;4.22;3.00;;;6.40;71.30;;;;;;5054584;28;20197;-60
2023/03/17 03:01:30;;;;;;;4.05;3.05;;;6.40;71.40;;;;;;5053999;28;20676;-60
2023/03/17 03:03:57;;;;;;;4.93;3.10;;;6.40;71.60;;;;;;5054666;28;20202;-61
2023/03/17 03:06:23;;;;;;;4.95;3.20;;;6.40;71.50;;;;;;5054686;28;20229;-61
2023/03/17 03:08:50;;;;;;;4.10;3.13;;;6.40;72.20;;;;;;5055025;28;20213;-60
2023/03/17 03:11:17;;;;;;;4.40;3.20;;;6.50;71.50;;;;;;5055435;28;20213;-60
2023/03/17 03:13:45;;;;;;;3.70;3.40;;;6.50;71.50;;;;;;5055236;28;20206;-60
2023/03/17 03:16:12;;;;;;;4.63;4.00;;;6.50;71.40;;;;;;5054751;28;20268;-61
2023/03/17 03:18:39;;;;;;;5.68;3.72;;;6.50;71.50;;;;;;5058381;28;20202;-60
2023/03/17 03:21:06;;;;;;;4.05;3.03;;;6.50;71.60;;;;;;5060654;28;20590;-61
2023/03/17 03:23:33;;;;;;;3.90;3.50;;;6.50;71.70;;;;;;5060446;28;20203;-61
2023/03/17 03:26:00;;;;;;;4.25;3.30;;;6.50;71.90;;;;;;5059452;28;20690;-61
2023/03/17 03:28:26;;;;;;;3.47;3.00;;;6.50;71.80;;;;;;5058671;28;20185;-61
2023/03/17 03:30:54;;;;;;;5.80;3.85;;;6.50;71.80;;;;;;5053976;28;20211;-61
2023/03/17 03:33:21;;;;;;;3.60;3.30;;;6.50;72.00;;;;;;5055315;28;20198;-60
2023/03/17 03:35:48;;;;;;;3.97;3.55;;;6.40;72.00;;;;;;5055140;28;20698;-61
2023/03/17 03:38:15;;;;;;;3.60;3.30;;;6.40;72.10;;;;;;5054917;28;20233;-60
2023/03/17 03:40:42;;;;;;;3.80;2.63;;;6.40;72.20;;;;;;5055331;28;20323;-60
2023/03/17 03:43:09;;;;;;;5.45;3.42;;;6.40;72.40;;;;;;5054157;28;20568;-60
2023/03/17 03:45:35;;;;;;;4.95;2.70;;;6.40;72.60;;;;;;5054462;28;20230;-60
2023/03/17 03:48:04;;;;;;;5.43;3.33;;;6.30;72.70;;;;;;5053644;28;20218;-61
2023/03/17 03:50:31;;;;;;;6.65;3.47;;;6.30;73.00;;;;;;5052923;28;20581;-60
2023/03/17 03:52:58;;;;;;;7.25;3.00;;;6.30;73.30;;;;;;5052915;28;20675;-60
2023/03/17 03:55:24;;;;;;;3.80;3.00;;;6.30;73.60;;;;;;5052864;28;20201;-60
2023/03/17 03:57:51;;;;;;;4.38;2.92;;;6.20;73.80;;;;;;5052989;28;20257;-60
2023/03/17 04:00:19;;;;;;;4.57;3.58;;;6.20;74.10;;;;;;5052848;28;20202;-60
2023/03/17 04:02:46;;;;;;;3.72;2.90;;;6.20;74.60;;;;;;5052885;28;20205;-60
2023/03/17 04:05:16;;;;;;;3.97;2.92;;;6.10;75.50;;;;;;5053058;28;20201;-60
2023/03/17 04:07:43;;;;;;;3.50;2.78;;;6.10;75.20;;;;;;5053098;28;20232;-60
2023/03/17 04:11:23;;;;;;;3.20;2.90;;;6.00;75.20;;;;;;5174373;27;20543;-61
2023/03/17 04:13:50;;;;;;;4.20;3.80;;;6.00;75.70;;;;;;5173866;27;20202;-60
2023/03/17 04:16:16;;;;;;;4.13;3.00;;;6.00;76.00;;;;;;5174165;27;20308;-59
2023/03/17 04:18:43;;;;;;;3.83;3.53;;;5.90;76.20;;;;;;5175371;27;20571;-60
2023/03/17 04:21:10;;;;;;;3.53;3.22;;;5.90;76.70;;;;;;5173928;27;20618;-60
2023/03/17 04:23:36;;;;;;;4.80;4.20;;;5.90;77.30;;;;;;5142685;22;20231;-66
2023/03/17 04:26:03;;;;;;;4.68;3.30;;;5.80;77.70;;;;;;5110893;28;20207;-66
2023/03/17 04:28:32;;;;;;;5.80;3.75;;;5.80;78.00;;;;;;5110693;28;20665;-66
2023/03/17 04:30:58;;;;;;;4.40;4.00;;;5.80;78.50;;;;;;5110873;28;20219;-65
2023/03/17 04:33:25;;;;;;;3.35;2.80;;;5.80;78.80;;;;;;5111313;28;20231;-66
2023/03/17 04:35:52;;;;;;;4.65;3.88;;;5.80;78.80;;;;;;5111191;28;20200;-66
2023/03/17 04:38:19;;;;;;;3.63;3.33;;;5.70;78.80;;;;;;5111417;28;20200;-66
2023/03/17 04:40:46;;;;;;;3.20;2.90;;;5.80;79.10;;;;;;5110620;28;20667;-66
2023/03/17 04:43:13;;;;;;;4.35;3.10;;;5.80;79.30;;;;;;5110715;28;20228;-65
2023/03/17 04:45:41;;;;;;;4.05;3.72;;;5.80;79.40;;;;;;5110958;28;20199;-65
2023/03/17 04:48:08;;;;;;;5.53;3.50;;;5.80;79.20;;;;;;5110717;28;20207;-65
2023/03/17 04:50:34;;;;;;;7.03;4.22;;;5.80;79.00;;;;;;5109956;28;20697;-65
2023/03/17 04:53:02;;;;;;;3.95;2.90;;;5.80;79.00;;;;;;5111408;28;20219;-65
2023/03/17 04:55:29;;;;;;;5.68;2.78;;;5.80;79.00;;;;;;5111447;28;20208;-65
2023/03/17 04:57:56;;;;;;;4.15;3.75;;;5.80;79.10;;;;;;5110209;28;20200;-66
2023/03/17 05:00:22;;;;;;;4.50;3.33;;;5.80;79.00;;;;;;5110408;28;20203;-66
2023/03/17 05:02:51;;;;;;;4.53;3.72;;;5.80;79.10;;;;;;5110759;28;20227;-65
2023/03/17 05:05:18;;;;;;;3.80;3.25;;;5.80;79.10;;;;;;5109322;28;20200;-64
2023/03/17 05:07:44;;;;;;;5.60;3.60;;;5.80;79.10;;;;;;5110720;28;20239;-64
2023/03/17 05:10:12;;;;;;;4.85;3.28;;;5.90;79.10;;;;;;5114217;28;20287;-65
2023/03/17 05:12:39;;;;;;;3.72;3.05;;;5.90;78.90;;;;;;5113628;28;20259;-65
2023/03/17 05:15:07;;;;;;;6.18;3.03;;;5.90;78.60;;;;;;5118715;28;20200;-65
2023/03/17 05:17:34;;;;;;;4.97;3.22;;;5.90;78.40;;;;;;5117957;28;20196;-66
2023/03/17 05:20:03;;;;;;;6.88;3.40;;;5.90;78.20;;;;;;5117903;28;20200;-65
2023/03/17 05:22:29;;;;;;;3.65;3.22;;;5.90;78.00;;;;;;5103241;28;20240;-65
2023/03/17 05:24:56;;;;;;;5.32;3.47;;;5.90;77.70;;;;;;5103921;28;20291;-66
2023/03/17 05:27:23;;;;;;;4.82;3.50;;;5.90;77.50;;;;;;5108108;28;20200;-66
2023/03/17 05:29:50;;;;;;;4.95;3.60;;;5.90;77.30;;;;;;5108372;28;20575;-66
2023/03/17 05:32:17;;;;;;;2.72;2.53;;;5.90;77.10;;;;;;5109007;28;20247;-65
2023/03/17 05:34:45;;;;;;;4.40;2.95;;;5.90;77.20;;;;;;5108572;28;20200;-65
2023/03/17 05:37:14;;;;;;;4.35;3.33;;;5.90;77.40;;;;;;5108033;28;20254;-65
2023/03/17 05:39:42;;;;;;;3.17;2.83;;;5.90;77.60;;;;;;5106583;28;20260;-65
2023/03/17 05:42:10;;;;;;;4.55;3.35;;;5.90;77.90;;;;;;5098097;28;20220;-65
2023/03/17 05:44:36;;;;;;;4.85;3.22;;;5.80;78.00;;;;;;5096430;28;20329;-65
2023/03/17 05:47:03;;;;;;;4.85;3.38;;;5.80;78.30;;;;;;5095777;28;20627;-65
2023/03/17 05:49:30;;;;;;;6.00;3.70;;;5.80;78.50;;;;;;5095961;28;20650;-64
2023/03/17 05:51:57;;;;;;;5.03;3.45;;;5.80;78.80;;;;;;5095952;28;20693;-64
2023/03/17 05:54:25;;;;;;;4.78;3.75;;;5.80;78.90;;;;;;5094534;28;20660;-63
2023/03/17 05:56:52;;;;;;;4.15;3.50;;;5.70;79.00;;;;;;5084767;28;20215;-65
2023/03/17 05:59:19;;;;;;;4.63;3.05;;;5.80;79.10;;;;;;5094848;28;20253;-66
2023/03/17 06:01:46;;;;;;;4.00;3.08;;;5.80;79.20;;;;;;5095037;28;20220;-66
2023/03/17 06:04:13;;;;;;;6.18;3.40;;;5.80;79.20;;;;;;5092991;28;20220;-66
2023/03/17 06:06:40;;;;;;;5.18;3.45;;;5.80;79.10;;;;;;5090894;28;20288;-69
2023/03/17 06:09:07;;;;;;;5.80;4.43;;;5.80;79.10;;;;;;5094071;28;20219;-65
2023/03/17 06:11:35;;;;;;;4.40;3.35;;;5.80;79.30;;;;;;5093282;28;20701;-66
2023/03/17 06:14:02;;;;;;;4.10;3.10;;;5.80;79.40;;;;;;5093130;28;20545;-64
2023/03/17 06:16:31;;;;;;;4.88;3.05;;;5.80;79.40;;;;;;5091983;28;20231;-64
2023/03/17 06:18:58;;;;;;;4.10;3.05;;;5.80;79.40;;;;;;5077842;28;20200;-67
2023/03/17 06:21:26;;;;;;;5.25;3.60;;;5.90;79.50;;;;;;5091530;28;20201;-65
2023/03/17 06:23:53;;;;;;;3.72;2.83;;;5.90;79.60;;;;;;5075577;28;20237;-64
2023/03/17 06:26:19;;;;;;;5.55;3.70;;;5.90;79.60;;;;;;5086354;28;20200;-64
2023/03/17 06:28:47;;;;;;;4.50;3.42;;;5.90;79.70;;;;;;5096418;28;20200;-64
2023/03/17 06:31:14;;;;;;;5.07;3.00;;;5.90;79.90;;;;;;5093105;28;20220;-65
2023/03/17 06:33:41;;;;;;;4.60;3.65;;;6.00;80.00;;;;;;5090070;28;20266;-63
2023/03/17 06:36:08;;;;;;;5.22;3.80;;;6.10;79.70;;;;;;5085668;28;20193;-65
2023/03/17 06:38:35;;;;;;;5.75;3.60;;;6.20;79.00;;;;;;5076144;28;20213;-65
2023/03/17 06:41:02;;;;;;;5.60;3.80;;;6.30;78.50;;;;;;5093994;28;20196;-65
2023/03/17 06:43:29;;;;;;;4.15;3.55;;;6.40;77.80;;;;;;5094730;28;20216;-64
2023/03/17 06:45:57;;;;;;;6.07;3.15;;;6.50;77.10;;;;;;5092758;28;20572;-65
2023/03/17 06:48:24;;;;;;;4.43;3.40;;;6.60;76.30;;;;;;5089742;28;20215;-65
2023/03/17 06:50:50;;;;;;;4.18;3.55;;;6.70;75.70;;;;;;5093534;28;20212;-66
2023/03/17 06:53:17;;;;;;;4.82;3.63;;;6.80;75.40;;;;;;5094219;28;20736;-65
2023/03/17 06:55:44;;;;;;;3.97;3.05;;;6.90;74.80;;;;;;5093627;28;20661;-65
2023/03/17 06:58:11;;;;;;;5.25;3.20;;;7.00;74.20;;;;;;5094879;28;20208;-66
2023/03/17 07:00:38;;;;;;;4.28;3.53;;;7.10;73.70;;;;;;5094051;28;20196;-65
2023/03/17 07:03:08;;;;;;;4.22;3.38;;;7.20;73.20;;;;;;5094588;28;20224;-65
2023/03/17 07:05:36;;;;;;;4.45;3.00;;;7.30;72.50;;;;;;5093742;28;20212;-63
2023/03/17 07:08:03;;;;;;;5.47;3.90;;;7.30;72.00;;;;;;5093472;28;20201;-64
2023/03/17 07:10:30;;;;;;;4.57;3.10;;;7.40;71.60;;;;;;5094090;28;20322;-65
2023/03/17 07:12:57;;;;;;;5.72;3.33;;;7.50;71.10;;;;;;5092779;28;20229;-64
2023/03/17 07:15:24;;;;;;;4.07;3.50;;;7.50;70.40;;;;;;5094268;28;20200;-65
2023/03/17 07:17:51;;;;;;;5.72;3.35;;;7.60;70.00;;;;;;5092239;28;20227;-64
2023/03/17 07:20:19;;;;;;;4.65;3.10;;;7.70;69.60;;;;;;5094220;28;20201;-65
2023/03/17 07:22:46;;;;;;;3.85;3.45;;;7.80;69.20;;;;;;5093367;28;20236;-66
2023/03/17 07:25:14;;;;;;;4.35;3.10;;;7.90;68.70;;;;;;5094228;28;20680;-66
2023/03/17 07:27:40;;;;;;;4.72;3.38;;;8.00;68.20;;;;;;5092998;28;20205;-65
2023/03/17 07:30:09;;;;;;;5.80;3.60;;;8.10;67.80;;;;;;5092631;28;20204;-67
2023/03/17 07:32:36;;;;;;;4.45;4.03;;;8.20;67.20;;;;;;5084605;28;20217;-67
2023/03/17 07:35:03;;;;;;;7.68;3.33;;;8.30;66.80;;;;;;5095398;28;20208;-66
2023/03/17 07:37:32;;;;;;;8.55;3.60;;;8.40;66.30;;;;;;5095091;28;20226;-66
2023/03/17 07:39:58;;;;;;;4.20;3.55;;;8.50;65.90;;;;;;5094454;28;20200;-67
2023/03/17 07:42:27;;;;;;;3.50;3.20;;;8.60;65.50;;;;;;5093464;28;20235;-66
2023/03/17 07:44:54;;;;;;;3.60;2.92;;;8.70;65.10;;;;;;5093124;28;20670;-66
2023/03/17 07:47:21;;;;;;;3.90;3.50;;;8.80;64.70;;;;;;5091100;28;20310;-66
2023/03/17 07:49:48;;;;;;;3.30;3.00;;;8.90;64.30;;;;;;5095388;28;20204;-65
2023/03/17 07:52:15;;;;;;;4.45;2.97;;;9.00;63.70;;;;;;5094180;28;20224;-66
2023/03/17 07:54:43;;;;;;;3.30;2.80;;;9.20;63.20;;;;;;5093704;28;20204;-67
2023/03/17 07:57:11;;;;;;;4.57;3.58;;;9.30;62.20;;;;;;5092206;28;20658;-65
2023/03/17 07:59:38;;;;;;;4.20;3.40;;;9.50;61.30;;;;;;5094336;28;20207;-65
2023/03/17 08:02:05;;;;;;;3.87;3.10;;;9.70;60.80;;;;;;5095057;28;21031;-66
2023/03/17 08:04:33;;;;;;;2.73;2.50;;;9.80;60.00;;;;;;5094506;28;20818;-67
2023/03/17 08:07:00;;;;;;;2.70;2.13;;;9.90;60.00;;;;;;5094870;28;20438;-66
2023/03/17 08:09:27;;;;;;;4.47;3.30;;;10.10;58.20;;;;;;5094372;28;20533;-67
2023/03/17 08:11:55;;;;;;;4.50;3.70;;;10.20;57.70;;;;;;5094053;28;20577;-65
2023/03/17 08:14:22;;;;;;;3.73;2.50;;;10.20;57.40;;;;;;5095550;28;20438;-64
2023/03/17 08:16:48;;;;;;;3.37;2.77;;;10.40;57.10;;;;;;5094551;28;20442;-64
2023/03/17 08:19:15;;;;;;;3.40;3.10;;;10.40;56.50;;;;;;5094545;28;20447;-66
2023/03/17 08:21:42;;;;;;;3.50;2.97;;;10.60;56.40;;;;;;5094776;28;20469;-63
2023/03/17 08:24:09;;;;;;;4.93;2.63;;;10.70;56.10;;;;;;5093687;28;20435;-64
2023/03/17 08:26:37;;;;;;;3.90;2.83;;;10.80;55.70;;;;;;5093872;28;20448;-66
2023/03/17 08:29:05;;;;;;;4.50;3.00;;;10.90;55.60;;;;;;5094113;28;20445;-65
2023/03/17 08:31:32;;;;;;;4.70;2.43;;;10.90;55.20;;;;;;5093605;28;20478;-64
2023/03/17 08:34:01;;;;;;;3.37;2.90;;;11.00;55.00;;;;;;5093164;28;20452;-64
2023/03/17 08:36:29;;;;;;;3.60;2.87;;;11.00;54.70;;;;;;5093801;28;20464;-65
2023/03/17 08:38:56;;;;;;;3.50;2.30;;;11.00;54.40;;;;;;5093916;28;20454;-67
2023/03/17 08:41:25;;;;;;;3.83;3.30;;;11.10;54.50;;;;;;5094093;28;20915;-67
2023/03/17 08:43:52;;;;;;;5.23;3.20;;;11.20;54.40;;;;;;5094919;28;20505;-67
2023/03/17 08:46:22;;;;;;;4.07;2.17;;;11.30;54.20;;;;;;5092871;28;20459;-66
2023/03/17 08:48:51;;;;;;;4.40;2.60;;;11.50;53.90;;;;;;5093543;28;20522;-66
2023/03/17 08:51:19;;;;;;;2.87;2.50;;;11.60;53.50;;;;;;5093655;28;20485;-67
2023/03/17 08:53:45;;;;;;;3.43;2.40;;;11.70;53.30;;;;;;5094127;28;20469;-67
2023/03/17 08:56:13;;;;;;;4.37;2.80;;;11.80;53.10;;;;;;5096124;28;20438;-67
2023/03/17 08:58:41;;;;;;;3.20;2.70;;;11.80;52.80;;;;;;5098190;28;20467;-67
2023/03/17 09:01:09;;;;;;;4.53;2.77;;;11.90;52.70;;;;;;5098151;28;20450;-67
2023/03/17 09:03:38;;;;;;;5.30;2.70;;;11.90;52.60;;;;;;5098230;28;20470;-67
2023/03/17 09:06:06;;;;;;;2.83;2.53;;;11.90;52.60;;;;;;5097887;28;20446;-67
2023/03/17 09:08:33;;;;;;;8.83;2.90;;;12.00;52.50;;;;;;5098975;28;20446;-67
2023/03/17 09:11:02;;;;;;;4.33;3.17;;;12.10;52.20;;;;;;5098603;28;20477;-67
2023/03/17 09:13:29;;;;;;;3.47;2.70;;;12.20;52.20;;;;;;5097756;28;20844;-67
2023/03/17 09:15:56;;;;;;;6.47;3.00;;;12.30;52.00;;;;;;5098711;28;20471;-68
2023/03/17 09:18:22;;;;;;;4.17;3.20;;;12.40;51.80;;;;;;5100485;28;20445;-66
2023/03/17 09:20:51;;;;;;;3.37;2.40;;;12.40;51.70;;;;;;5099556;28;20533;-66
2023/03/17 09:23:18;;;;;;;3.93;2.70;;;12.50;51.50;;;;;;5097579;28;21041;-67
2023/03/17 09:25:45;;;;;;;3.47;2.60;;;12.60;51.40;;;;;;5102831;28;20490;-66
2023/03/17 09:28:12;;;;;;;2.80;2.37;;;12.70;51.30;;;;;;5105473;28;20446;-67
2023/03/17 09:30:41;;;;;;;7.20;3.33;;;12.80;51.00;;;;;;5103166;28;20442;-65
2023/03/17 09:33:09;;;;;;;3.03;2.33;;;13.00;51.30;;;;;;5099030;28;20454;-66
2023/03/17 09:35:35;;;;;;;2.50;2.20;;;13.00;50.30;;;;;;5099504;28;20504;-65
2023/03/17 09:38:04;;;;;;;2.77;2.13;;;13.10;50.30;;;;;;5099394;28;20442;-65
2023/03/17 09:40:46;;;;;;;2.53;1.97;;;13.10;50.10;;;;;;5098145;28;20862;-68
2023/03/17 09:43:24;;;;;;;3.03;1.93;;;13.20;50.00;;;;;;5098180;28;20574;-68
2023/03/17 09:45:52;;;;;;;2.70;2.40;;;13.30;49.80;;;;;;5100853;28;20431;-69
2023/03/17 09:48:45;;;;;;;3.33;2.40;;;13.30;49.50;;;;;;5099184;28;20465;-68
2023/03/17 09:51:14;;;;;;;2.80;2.20;;;13.30;49.30;;;;;;5097315;28;20481;-68
2023/03/17 09:53:49;;;;;;;2.77;2.10;;;13.40;49.30;;;;;;5099422;28;21053;-69
2023/03/17 09:56:18;;;;;;;2.80;2.30;;;13.40;49.20;;;;;;5099517;28;20466;-68
2023/03/17 09:58:52;;;;;;;4.30;2.73;;;13.50;49.00;;;;;;5101918;28;20449;-69
2023/03/17 10:01:20;;;;;;;3.40;2.23;;;13.50;48.60;;;;;;5100349;28;20431;-67
2023/03/17 10:03:49;;;;;;;2.87;2.57;;;13.60;48.40;;;;;;5098612;28;20508;-67
2023/03/17 10:06:37;;;;;;;3.20;2.60;;;13.60;48.10;;;;;;5098368;28;20453;-68
2023/03/17 10:09:25;;;;;;;2.53;2.20;;;13.60;47.70;;;;;;5099895;28;20449;-68
2023/03/17 10:12:01;;;;;;;2.43;2.23;;;13.60;47.70;;;;;;5099361;28;20509;-67
2023/03/17 10:14:41;;;;;;;5.30;2.63;;;13.70;47.70;;;;;;5100775;28;20437;-67
2023/03/17 10:17:16;;;;;;;3.40;2.40;;;13.70;47.60;;;;;;5099268;28;20426;-68
2023/03/17 10:19:47;;;;;;;3.97;2.30;;;13.80;47.50;;;;;;5099160;28;20429;-69
2023/03/17 10:22:20;;;;;;;7.23;2.73;;;13.90;47.60;;;;;;5100857;28;20565;-69
2023/03/17 10:24:52;;;;;;;2.63;2.33;;;14.00;47.30;;;;;;5101160;28;20806;-69
2023/03/17 10:27:20;;;;;;;2.60;2.27;;;14.10;47.40;;;;;;5139999;22;20497;-60
2023/03/17 10:29:47;;;;;;;3.17;2.67;;;14.10;47.30;;;;;;5135964;27;20435;-60
2023/03/17 10:32:14;;;;;;;2.60;1.90;;;14.20;47.30;;;;;;5136658;27;20846;-60
2023/03/17 10:34:42;;;;;;;2.10;1.90;;;14.20;47.10;;;;;;5136255;27;20487;-60
2023/03/17 10:37:15;;;;;;;2.57;2.00;;;14.40;47.10;;;;;;5136365;27;20483;-60
2023/03/17 10:39:45;;;;;;;2.53;2.30;;;14.50;47.00;;;;;;5135693;27;20421;-60
2023/03/17 10:42:20;;;;;;;2.40;1.90;;;14.60;46.70;;;;;;5135094;27;20934;-60
2023/03/17 10:44:52;;;;;;;2.40;1.97;;;14.80;46.50;;;;;;5135236;27;20914;-60
2023/03/17 10:47:28;;;;;;;2.83;2.20;;;14.90;46.30;;;;;;5136375;27;20457;-60
2023/03/17 10:49:56;;;;;;;2.70;1.93;;;14.90;45.90;;;;;;5136816;27;20435;-60
2023/03/17 10:52:27;;;;;;;2.40;2.07;;;15.00;45.80;;;;;;5137527;27;20479;-58
2023/03/17 10:54:54;;;;;;;4.20;2.80;;;15.10;45.80;;;;;;5136998;27;20448;-59
2023/03/17 10:57:22;;;;;;;3.50;2.17;;;15.20;45.60;;;;;;5136899;27;20858;-60
2023/03/17 10:59:52;;;;;;;4.73;2.17;;;15.20;45.50;;;;;;5135766;27;20567;-60
2023/03/17 11:02:24;;;;;;;2.60;2.13;;;15.30;45.30;;;;;;5135102;27;20448;-62
2023/03/17 11:04:55;;;;;;;4.13;2.10;;;15.40;45.40;;;;;;5134994;27;20463;-59
2023/03/17 11:07:34;;;;;;;7.13;2.03;;;15.50;45.30;;;;;;5135044;27;20456;-59
2023/03/17 11:10:03;;;;;;;4.10;2.87;;;15.60;45.10;;;;;;5134556;27;20440;-59
2023/03/17 11:12:38;;;;;;;3.20;2.53;;;15.70;45.00;;;;;;5123004;27;20487;-60
2023/03/17 11:15:10;;;;;;;9.70;3.67;;;15.90;45.00;;;;;;5114734;27;20449;-62
2023/03/17 11:17:47;;;;;;;3.17;2.53;;;16.00;44.70;;;;;;5114429;28;20470;-61
2023/03/17 11:20:42;;;;;;;2.60;1.80;;;16.00;44.60;;;;;;5113494;27;20425;-67
2023/03/17 11:23:21;;;;;;;3.20;2.20;;;16.00;44.60;;;;;;5103976;28;20514;-60
2023/03/17 11:25:52;;;;;;;3.70;2.30;;;16.00;44.40;;;;;;5115258;27;20472;-61
2023/03/17 11:28:23;;;;;;;5.30;2.93;;;16.00;44.50;;;;;;5134861;27;20421;-59
2023/03/17 11:30:59;;;;;;;2.83;2.57;;;16.20;44.50;;;;;;5115742;27;20457;-60
2023/03/17 11:33:35;;;;;;;4.00;2.33;;;16.30;44.40;;;;;;5119302;27;20475;-61
2023/03/17 11:36:09;;;;;;;3.40;2.70;;;16.40;44.30;;;;;;5114952;28;20457;-60
2023/03/17 11:38:40;;;;;;;2.43;2.23;;;16.60;44.10;;;;;;5118147;27;20452;-60
2023/03/17 11:41:27;;;;;;;2.60;2.20;;;16.60;43.90;;;;;;5127823;27;20440;-57
2023/03/17 11:44:14;;;;;;;2.33;2.10;;;16.70;43.80;;;;;;5132675;27;20910;-58
2023/03/17 11:46:46;;;;;;;5.00;2.37;;;16.60;43.40;;;;;;5113922;28;20453;-60
2023/03/17 11:49:17;;;;;;;5.47;2.13;;;16.50;43.50;;;;;;5115724;27;20445;-60
2023/03/17 11:51:55;;;;;;;3.03;2.20;;;16.60;43.70;;;;;;5133591;27;20465;-63
2023/03/17 11:54:29;;;;;;;2.10;1.90;;;16.70;43.70;;;;;;5113492;28;20413;-59
2023/03/17 11:57:00;;;;;;;2.97;2.30;;;16.90;43.60;;;;;;5133310;27;20988;-61
2023/03/17 11:59:33;;;;;;;3.23;1.93;;;17.00;43.40;;;;;;5124988;27;20488;-60
2023/03/17 12:02:11;;;;;;;4.53;2.23;;;17.20;43.50;;;;;;5130479;27;20455;-62
2023/03/17 12:04:48;;;;;;;4.10;2.47;;;17.30;43.50;;;;;;5130239;27;20429;-63
2023/03/17 12:07:20;;;;;;;3.23;2.40;;;17.40;43.40;;;;;;5113689;28;20465;-60
2023/03/17 12:09:55;;;;;;;3.00;2.20;;;17.50;43.50;;;;;;5112334;28;20506;-62
2023/03/17 12:12:29;;;;;;;4.70;2.23;;;17.50;43.40;;;;;;5113278;28;20468;-60
2023/03/17 12:14:58;;;;;;;4.10;2.30;;;17.40;43.30;;;;;;5115610;28;20426;-61
2023/03/17 12:17:31;;;;;;;2.60;1.90;;;17.30;43.40;;;;;;5113571;28;20461;-60
2023/03/17 12:20:07;;;;;;;2.97;1.97;;;17.20;43.40;;;;;;5112767;28;20467;-59
2023/03/17 12:22:39;;;;;;;2.60;1.93;;;17.10;43.50;;;;;;5113448;28;20537;-59
2023/03/17 12:25:15;;;;;;;3.03;2.10;;;17.00;43.70;;;;;;5112711;28;20434;-60
2023/03/17 12:27:49;;;;;;;2.90;2.00;;;17.00;43.70;;;;;;5112551;28;20481;-65
2023/03/17 12:30:24;;;;;;;2.83;2.43;;;17.00;43.70;;;;;;5112161;28;20430;-60
2023/03/17 12:32:58;;;;;;;1.67;1.50;;;17.10;43.90;;;;;;5115634;28;20472;-60
2023/03/17 12:35:30;;;;;;;4.73;1.70;;;17.30;44.00;;;;;;5116789;28;20433;-59
2023/03/17 12:37:59;;;;;;;4.40;1.70;;;17.40;43.90;;;;;;5117609;28;20760;-60
2023/03/17 12:40:30;;;;;;;3.60;2.00;;;17.60;43.90;;;;;;5118465;28;20441;-64
2023/03/17 12:43:14;;;;;;;2.70;1.97;;;17.70;43.70;;;;;;5118110;28;20418;-60
2023/03/17 12:45:55;;;;;;;2.60;1.90;;;17.80;43.60;;;;;;5117322;28;20465;-61
2023/03/17 12:48:41;;;;;;;2.70;2.07;;;17.80;43.60;;;;;;5117364;28;20422;-60
2023/03/17 12:51:44;;;;;;;3.33;2.07;;;17.90;43.70;;;;;;5117154;28;20959;-60
2023/03/17 12:54:20;;;;;;;3.23;2.23;;;17.90;43.70;;;;;;5116989;28;20445;-60
2023/03/17 12:56:48;;;;;;;3.53;1.73;;;18.00;43.50;;;;;;5116194;28;20578;-60
2023/03/17 12:59:18;;;;;;;2.00;1.80;;;18.00;43.50;;;;;;5116493;28;20934;-60
2023/03/17 13:01:56;;;;;;;3.10;1.80;;;18.20;43.50;;;;;;5116729;28;20444;-60
2023/03/17 13:04:26;;;;;;;4.07;2.80;;;18.30;43.40;;;;;;5115752;28;20791;-60